sensor_id;sensor_type;location;lat;lon;timestamp;temperature;humidity
3005;DHT22;1512;51.486;6.610;2024-03-22T00:01:42;11.10;1.00
3005;DHT22;1512;51.486;6.610;2024-03-22T00:05:50;11.20;1.00
3005;DHT22;1512;51.486;6.610;2024-03-22T00:09:59;11.20;1.00
3005;DHT22;1512;51.486;6.610;2024-03-22T00:14:08;11.20;1.00
3005;DHT22;1512;51.486;6.610;2024-03-22T00:18:17;11.20;1.00
3005;DHT22;1512;51.486;6.610;2024-03-22T00:22:26;11.20;1.00
3005;DHT22;1512;51.486;6.610;2024-03-22T00:26:35;11.20;1.00
3005;DHT22;1512;51.486;6.610;2024-03-22T00:30:43;11.20;1.00
3005;DHT22;1512;51.486;6.610;2024-03-22T00:34:52;11.20;1.00
3005;DHT22;1512;51.486;6.610;2024-03-22T00:39:01;11.20;1.00
3005;DHT22;1512;51.486;6.610;2024-03-22T00:43:11;11.20;1.00
3005;DHT22;1512;51.486;6.610;2024-03-22T00:47:19;11.20;1.00
3005;DHT22;1512;51.486;6.610;2024-03-22T00:51:28;11.20;1.00
3005;DHT22;1512;51.486;6.610;2024-03-22T00:55:37;11.20;1.00
3005;DHT22;1512;51.486;6.610;2024-03-22T00:59:45;11.10;1.00
3005;DHT22;1512;51.486;6.610;2024-03-22T01:03:54;11.10;1.00
3005;DHT22;1512;51.486;6.610;2024-03-22T01:08:03;11.20;1.00
3005;DHT22;1512;51.486;6.610;2024-03-22T01:12:12;11.20;1.00
3005;DHT22;1512;51.486;6.610;2024-03-22T01:16:21;11.20;1.00
3005;DHT22;1512;51.486;6.610;2024-03-22T01:20:29;11.20;1.00
3005;DHT22;1512;51.486;6.610;2024-03-22T01:24:38;11.20;1.00
3005;DHT22;1512;51.486;6.610;2024-03-22T01:28:47;11.20;1.00
3005;DHT22;1512;51.486;6.610;2024-03-22T01:32:55;11.20;1.00
3005;DHT22;1512;51.486;6.610;2024-03-22T01:37:04;11.20;1.00
3005;DHT22;1512;51.486;6.610;2024-03-22T01:41:13;11.20;1.00
3005;DHT22;1512;51.486;6.610;2024-03-22T01:45:22;11.20;1.00
3005;DHT22;1512;51.486;6.610;2024-03-22T01:49:32;11.20;1.00
3005;DHT22;1512;51.486;6.610;2024-03-22T01:53:41;11.10;1.00
3005;DHT22;1512;51.486;6.610;2024-03-22T01:57:51;11.20;1.00
3005;DHT22;1512;51.486;6.610;2024-03-22T02:02:00;11.20;1.00
3005;DHT22;1512;51.486;6.610;2024-03-22T02:06:10;11.20;1.00
3005;DHT22;1512;51.486;6.610;2024-03-22T02:10:19;11.20;1.00
3005;DHT22;1512;51.486;6.610;2024-03-22T02:14:27;11.30;1.00
3005;DHT22;1512;51.486;6.610;2024-03-22T02:18:36;11.30;1.00
3005;DHT22;1512;51.486;6.610;2024-03-22T02:22:44;11.30;1.00
3005;DHT22;1512;51.486;6.610;2024-03-22T02:26:53;11.30;1.00
3005;DHT22;1512;51.486;6.610;2024-03-22T02:31:03;11.30;1.00
3005;DHT22;1512;51.486;6.610;2024-03-22T02:35:18;11.30;1.00
3005;DHT22;1512;51.486;6.610;2024-03-22T02:39:27;11.30;1.00
3005;DHT22;1512;51.486;6.610;2024-03-22T02:43:36;11.20;1.00
3005;DHT22;1512;51.486;6.610;2024-03-22T02:47:44;11.20;1.00
3005;DHT22;1512;51.486;6.610;2024-03-22T02:51:53;11.20;1.00
3005;DHT22;1512;51.486;6.610;2024-03-22T02:56:02;11.20;1.00
3005;DHT22;1512;51.486;6.610;2024-03-22T03:00:10;11.10;1.00
3005;DHT22;1512;51.486;6.610;2024-03-22T03:04:20;11.10;1.00
3005;DHT22;1512;51.486;6.610;2024-03-22T03:08:28;11.10;1.00
3005;DHT22;1512;51.486;6.610;2024-03-22T03:12:37;11.00;1.00
3005;DHT22;1512;51.486;6.610;2024-03-22T03:16:45;11.00;1.00
3005;DHT22;1512;51.486;6.610;2024-03-22T03:20:54;11.00;1.00
3005;DHT22;1512;51.486;6.610;2024-03-22T03:25:04;11.00;1.00
3005;DHT22;1512;51.486;6.610;2024-03-22T03:29:13;10.90;1.00
3005;DHT22;1512;51.486;6.610;2024-03-22T03:33:21;10.90;1.00
3005;DHT22;1512;51.486;6.610;2024-03-22T03:37:49;10.90;1.00
3005;DHT22;1512;51.486;6.610;2024-03-22T03:41:58;10.90;1.00
3005;DHT22;1512;51.486;6.610;2024-03-22T03:46:06;10.80;38.20
3005;DHT22;1512;51.486;6.610;2024-03-22T03:50:15;10.80;52.60
3005;DHT22;1512;51.486;6.610;2024-03-22T03:54:24;10.80;99.90
3005;DHT22;1512;51.486;6.610;2024-03-22T03:58:32;10.80;99.90
3005;DHT22;1512;51.486;6.610;2024-03-22T04:02:41;10.80;99.90
3005;DHT22;1512;51.486;6.610;2024-03-22T04:06:49;10.90;99.90
3005;DHT22;1512;51.486;6.610;2024-03-22T04:10:58;10.90;99.90
3005;DHT22;1512;51.486;6.610;2024-03-22T04:15:07;10.90;99.90
3005;DHT22;1512;51.486;6.610;2024-03-22T04:19:16;10.90;99.90
3005;DHT22;1512;51.486;6.610;2024-03-22T04:23:25;11.00;99.90
3005;DHT22;1512;51.486;6.610;2024-03-22T04:27:36;11.00;99.90
3005;DHT22;1512;51.486;6.610;2024-03-22T04:31:44;11.00;99.90
3005;DHT22;1512;51.486;6.610;2024-03-22T04:35:54;11.00;99.90
3005;DHT22;1512;51.486;6.610;2024-03-22T04:40:04;11.10;99.90
3005;DHT22;1512;51.486;6.610;2024-03-22T04:44:13;11.10;99.90
3005;DHT22;1512;51.486;6.610;2024-03-22T04:48:22;11.10;99.90
3005;DHT22;1512;51.486;6.610;2024-03-22T04:52:31;11.20;99.90
3005;DHT22;1512;51.486;6.610;2024-03-22T04:56:40;11.20;33.30
3005;DHT22;1512;51.486;6.610;2024-03-22T05:00:49;11.30;1.00
3005;DHT22;1512;51.486;6.610;2024-03-22T05:04:59;11.30;1.00
3005;DHT22;1512;51.486;6.610;2024-03-22T05:09:08;11.30;1.00
3005;DHT22;1512;51.486;6.610;2024-03-22T05:13:17;11.30;1.00
3005;DHT22;1512;51.486;6.610;2024-03-22T05:17:27;11.40;1.00
3005;DHT22;1512;51.486;6.610;2024-03-22T05:21:36;11.40;1.00
3005;DHT22;1512;51.486;6.610;2024-03-22T05:25:45;11.40;1.00
3005;DHT22;1512;51.486;6.610;2024-03-22T05:29:54;11.40;1.00
3005;DHT22;1512;51.486;6.610;2024-03-22T05:34:02;11.50;1.00
3005;DHT22;1512;51.486;6.610;2024-03-22T05:38:11;11.50;1.00
3005;DHT22;1512;51.486;6.610;2024-03-22T05:42:19;11.50;1.00
3005;DHT22;1512;51.486;6.610;2024-03-22T05:46:28;11.50;1.00
3005;DHT22;1512;51.486;6.610;2024-03-22T05:50:38;11.50;1.00
3005;DHT22;1512;51.486;6.610;2024-03-22T05:54:46;11.50;1.00
3005;DHT22;1512;51.486;6.610;2024-03-22T05:58:55;11.50;1.00
3005;DHT22;1512;51.486;6.610;2024-03-22T06:03:04;11.60;1.00
3005;DHT22;1512;51.486;6.610;2024-03-22T06:07:13;11.60;1.00
3005;DHT22;1512;51.486;6.610;2024-03-22T06:11:23;11.60;1.00
3005;DHT22;1512;51.486;6.610;2024-03-22T06:15:32;11.60;1.00
3005;DHT22;1512;51.486;6.610;2024-03-22T06:19:40;11.60;1.00
3005;DHT22;1512;51.486;6.610;2024-03-22T06:23:50;11.60;1.00
3005;DHT22;1512;51.486;6.610;2024-03-22T06:27:58;11.60;1.00
3005;DHT22;1512;51.486;6.610;2024-03-22T06:32:07;11.70;1.00
3005;DHT22;1512;51.486;6.610;2024-03-22T06:36:15;11.70;1.00
3005;DHT22;1512;51.486;6.610;2024-03-22T06:40:25;11.70;1.00
3005;DHT22;1512;51.486;6.610;2024-03-22T06:44:34;11.70;1.00
3005;DHT22;1512;51.486;6.610;2024-03-22T06:48:43;11.80;1.00
3005;DHT22;1512;51.486;6.610;2024-03-22T06:52:52;11.80;1.00
3005;DHT22;1512;51.486;6.610;2024-03-22T06:57:03;11.90;1.00
3005;DHT22;1512;51.486;6.610;2024-03-22T07:01:11;11.90;1.00
3005;DHT22;1512;51.486;6.610;2024-03-22T07:05:22;12.00;1.00
3005;DHT22;1512;51.486;6.610;2024-03-22T07:09:33;12.10;1.00
3005;DHT22;1512;51.486;6.610;2024-03-22T07:13:42;12.20;1.00
3005;DHT22;1512;51.486;6.610;2024-03-22T07:17:50;12.20;1.00
3005;DHT22;1512;51.486;6.610;2024-03-22T07:21:59;12.30;1.00
3005;DHT22;1512;51.486;6.610;2024-03-22T07:26:08;12.40;1.00
3005;DHT22;1512;51.486;6.610;2024-03-22T07:30:18;12.40;1.00
3005;DHT22;1512;51.486;6.610;2024-03-22T07:34:26;12.50;1.00
3005;DHT22;1512;51.486;6.610;2024-03-22T07:38:35;12.60;1.00
3005;DHT22;1512;51.486;6.610;2024-03-22T07:42:46;12.60;1.00
3005;DHT22;1512;51.486;6.610;2024-03-22T07:46:54;12.70;1.00
3005;DHT22;1512;51.486;6.610;2024-03-22T07:51:03;12.70;1.00
3005;DHT22;1512;51.486;6.610;2024-03-22T07:55:12;12.70;1.00
3005;DHT22;1512;51.486;6.610;2024-03-22T07:59:20;12.80;1.00
3005;DHT22;1512;51.486;6.610;2024-03-22T08:03:29;12.80;1.00
3005;DHT22;1512;51.486;6.610;2024-03-22T08:07:37;12.80;1.00
3005;DHT22;1512;51.486;6.610;2024-03-22T08:11:46;12.80;1.00
3005;DHT22;1512;51.486;6.610;2024-03-22T08:15:55;12.80;1.00
3005;DHT22;1512;51.486;6.610;2024-03-22T08:20:04;12.90;1.00
3005;DHT22;1512;51.486;6.610;2024-03-22T08:24:13;12.90;1.00
3005;DHT22;1512;51.486;6.610;2024-03-22T08:28:22;13.00;99.90
3005;DHT22;1512;51.486;6.610;2024-03-22T08:32:32;13.00;99.90
3005;DHT22;1512;51.486;6.610;2024-03-22T08:36:41;13.00;99.90
3005;DHT22;1512;51.486;6.610;2024-03-22T08:40:50;13.10;99.90
3005;DHT22;1512;51.486;6.610;2024-03-22T08:44:59;13.10;99.90
3005;DHT22;1512;51.486;6.610;2024-03-22T08:49:07;13.20;99.90
3005;DHT22;1512;51.486;6.610;2024-03-22T08:53:16;13.20;99.90
3005;DHT22;1512;51.486;6.610;2024-03-22T08:57:25;13.20;99.90
3005;DHT22;1512;51.486;6.610;2024-03-22T09:01:34;13.30;99.90
3005;DHT22;1512;51.486;6.610;2024-03-22T09:05:43;13.40;99.90
3005;DHT22;1512;51.486;6.610;2024-03-22T09:09:53;13.60;99.90
3005;DHT22;1512;51.486;6.610;2024-03-22T09:14:02;13.80;99.90
3005;DHT22;1512;51.486;6.610;2024-03-22T09:18:10;14.00;99.90
3005;DHT22;1512;51.486;6.610;2024-03-22T09:22:19;14.10;99.90
3005;DHT22;1512;51.486;6.610;2024-03-22T09:26:28;14.00;99.90
3005;DHT22;1512;51.486;6.610;2024-03-22T09:30:40;14.00;99.90
3005;DHT22;1512;51.486;6.610;2024-03-22T09:34:52;14.00;99.90
3005;DHT22;1512;51.486;6.610;2024-03-22T09:39:01;14.00;99.90
3005;DHT22;1512;51.486;6.610;2024-03-22T09:43:12;13.90;99.90
3005;DHT22;1512;51.486;6.610;2024-03-22T09:47:22;14.00;99.90
3005;DHT22;1512;51.486;6.610;2024-03-22T09:51:34;14.00;99.90
3005;DHT22;1512;51.486;6.610;2024-03-22T09:55:43;14.10;99.90
3005;DHT22;1512;51.486;6.610;2024-03-22T10:00:12;14.10;99.90
3005;DHT22;1512;51.486;6.610;2024-03-22T10:04:22;14.10;99.90
3005;DHT22;1512;51.486;6.610;2024-03-22T10:08:30;14.20;99.90
3005;DHT22;1512;51.486;6.610;2024-03-22T10:12:39;14.20;99.90
3005;DHT22;1512;51.486;6.610;2024-03-22T10:16:48;14.10;99.90
3005;DHT22;1512;51.486;6.610;2024-03-22T10:21:04;14.10;99.90
3005;DHT22;1512;51.486;6.610;2024-03-22T10:25:13;14.00;99.90
3005;DHT22;1512;51.486;6.610;2024-03-22T10:29:22;14.00;99.90
3005;DHT22;1512;51.486;6.610;2024-03-22T10:33:31;14.00;99.90
3005;DHT22;1512;51.486;6.610;2024-03-22T10:37:40;14.00;99.90
3005;DHT22;1512;51.486;6.610;2024-03-22T10:41:51;14.20;99.90
3005;DHT22;1512;51.486;6.610;2024-03-22T10:46:01;14.20;99.90
3005;DHT22;1512;51.486;6.610;2024-03-22T10:50:13;14.30;99.90
3005;DHT22;1512;51.486;6.610;2024-03-22T10:54:25;14.30;99.90
3005;DHT22;1512;51.486;6.610;2024-03-22T10:58:34;14.20;99.90
3005;DHT22;1512;51.486;6.610;2024-03-22T11:02:46;14.20;99.90
3005;DHT22;1512;51.486;6.610;2024-03-22T11:06:59;14.30;99.90
3005;DHT22;1512;51.486;6.610;2024-03-22T11:11:11;14.40;99.90
3005;DHT22;1512;51.486;6.610;2024-03-22T11:15:20;14.40;99.90
3005;DHT22;1512;51.486;6.610;2024-03-22T11:19:30;14.30;99.90
3005;DHT22;1512;51.486;6.610;2024-03-22T11:23:39;14.20;99.90
3005;DHT22;1512;51.486;6.610;2024-03-22T11:27:48;14.10;99.90
3005;DHT22;1512;51.486;6.610;2024-03-22T11:31:57;13.90;99.90
3005;DHT22;1512;51.486;6.610;2024-03-22T11:36:05;13.70;99.90
3005;DHT22;1512;51.486;6.610;2024-03-22T11:40:14;13.70;99.90
3005;DHT22;1512;51.486;6.610;2024-03-22T11:44:23;13.70;99.90
3005;DHT22;1512;51.486;6.610;2024-03-22T11:48:33;13.50;99.90
3005;DHT22;1512;51.486;6.610;2024-03-22T11:52:43;13.50;99.90
3005;DHT22;1512;51.486;6.610;2024-03-22T11:56:57;13.40;99.90
3005;DHT22;1512;51.486;6.610;2024-03-22T12:01:05;13.30;99.90
3005;DHT22;1512;51.486;6.610;2024-03-22T12:05:17;13.20;99.90
3005;DHT22;1512;51.486;6.610;2024-03-22T12:09:26;13.20;99.90
3005;DHT22;1512;51.486;6.610;2024-03-22T12:13:35;13.10;99.90
3005;DHT22;1512;51.486;6.610;2024-03-22T12:17:44;13.00;99.90
3005;DHT22;1512;51.486;6.610;2024-03-22T12:21:52;12.90;99.90
3005;DHT22;1512;51.486;6.610;2024-03-22T12:26:01;12.90;99.90
3005;DHT22;1512;51.486;6.610;2024-03-22T12:30:10;12.80;99.90
3005;DHT22;1512;51.486;6.610;2024-03-22T12:34:19;12.80;99.90
3005;DHT22;1512;51.486;6.610;2024-03-22T12:38:27;12.70;99.90
3005;DHT22;1512;51.486;6.610;2024-03-22T12:42:36;12.70;99.90
3005;DHT22;1512;51.486;6.610;2024-03-22T12:46:45;12.70;99.90
3005;DHT22;1512;51.486;6.610;2024-03-22T12:50:53;12.80;99.90
3005;DHT22;1512;51.486;6.610;2024-03-22T12:55:02;12.70;99.90
3005;DHT22;1512;51.486;6.610;2024-03-22T12:59:11;12.70;99.90
3005;DHT22;1512;51.486;6.610;2024-03-22T13:03:20;12.70;99.90
3005;DHT22;1512;51.486;6.610;2024-03-22T13:07:28;12.70;99.90
3005;DHT22;1512;51.486;6.610;2024-03-22T13:11:37;12.70;99.90
3005;DHT22;1512;51.486;6.610;2024-03-22T13:15:45;12.70;99.90
3005;DHT22;1512;51.486;6.610;2024-03-22T13:19:54;12.70;99.90
3005;DHT22;1512;51.486;6.610;2024-03-22T13:24:03;12.60;99.90
3005;DHT22;1512;51.486;6.610;2024-03-22T13:28:12;12.60;99.90
3005;DHT22;1512;51.486;6.610;2024-03-22T13:32:20;12.50;99.90
3005;DHT22;1512;51.486;6.610;2024-03-22T13:36:29;12.50;99.90
3005;DHT22;1512;51.486;6.610;2024-03-22T13:40:39;12.50;99.90
3005;DHT22;1512;51.486;6.610;2024-03-22T13:44:52;12.40;99.90
3005;DHT22;1512;51.486;6.610;2024-03-22T13:49:01;12.40;99.90
3005;DHT22;1512;51.486;6.610;2024-03-22T13:53:09;12.40;99.90
3005;DHT22;1512;51.486;6.610;2024-03-22T13:57:18;12.50;99.90
3005;DHT22;1512;51.486;6.610;2024-03-22T14:01:26;12.50;99.90
3005;DHT22;1512;51.486;6.610;2024-03-22T14:05:35;12.40;99.90
3005;DHT22;1512;51.486;6.610;2024-03-22T14:09:44;12.40;99.90
3005;DHT22;1512;51.486;6.610;2024-03-22T14:13:53;12.40;99.90
3005;DHT22;1512;51.486;6.610;2024-03-22T14:18:01;12.30;99.90
3005;DHT22;1512;51.486;6.610;2024-03-22T14:22:10;12.30;99.90
3005;DHT22;1512;51.486;6.610;2024-03-22T14:26:19;12.30;1.00
3005;DHT22;1512;51.486;6.610;2024-03-22T14:30:28;12.20;1.00
3005;DHT22;1512;51.486;6.610;2024-03-22T14:34:37;12.10;1.00
3005;DHT22;1512;51.486;6.610;2024-03-22T14:38:45;12.00;1.00
3005;DHT22;1512;51.486;6.610;2024-03-22T14:42:54;12.00;1.00
3005;DHT22;1512;51.486;6.610;2024-03-22T14:47:03;12.00;1.00
3005;DHT22;1512;51.486;6.610;2024-03-22T14:51:12;12.00;1.00
3005;DHT22;1512;51.486;6.610;2024-03-22T14:55:20;12.00;1.00
3005;DHT22;1512;51.486;6.610;2024-03-22T14:59:29;11.90;1.00
3005;DHT22;1512;51.486;6.610;2024-03-22T15:03:38;11.90;1.00
3005;DHT22;1512;51.486;6.610;2024-03-22T15:07:46;11.90;1.00
3005;DHT22;1512;51.486;6.610;2024-03-22T15:11:55;11.80;1.00
3005;DHT22;1512;51.486;6.610;2024-03-22T15:16:05;11.70;1.00
3005;DHT22;1512;51.486;6.610;2024-03-22T15:20:14;11.60;1.00
3005;DHT22;1512;51.486;6.610;2024-03-22T15:24:23;11.60;1.00
3005;DHT22;1512;51.486;6.610;2024-03-22T15:28:31;11.50;99.90
3005;DHT22;1512;51.486;6.610;2024-03-22T15:32:41;11.50;99.90
3005;DHT22;1512;51.486;6.610;2024-03-22T15:37:10;11.50;99.90
3005;DHT22;1512;51.486;6.610;2024-03-22T15:41:19;11.50;99.90
3005;DHT22;1512;51.486;6.610;2024-03-22T15:45:27;11.60;99.90
3005;DHT22;1512;51.486;6.610;2024-03-22T15:49:38;11.60;99.90
3005;DHT22;1512;51.486;6.610;2024-03-22T15:53:46;11.60;99.90
3005;DHT22;1512;51.486;6.610;2024-03-22T15:57:55;11.60;99.90
3005;DHT22;1512;51.486;6.610;2024-03-22T16:02:04;11.50;99.90
3005;DHT22;1512;51.486;6.610;2024-03-22T16:06:14;11.50;99.90
3005;DHT22;1512;51.486;6.610;2024-03-22T16:10:23;11.50;99.90
3005;DHT22;1512;51.486;6.610;2024-03-22T16:14:32;11.40;99.90
3005;DHT22;1512;51.486;6.610;2024-03-22T16:18:40;11.40;99.90
3005;DHT22;1512;51.486;6.610;2024-03-22T16:22:49;11.40;99.90
3005;DHT22;1512;51.486;6.610;2024-03-22T16:26:57;11.40;1.00
3005;DHT22;1512;51.486;6.610;2024-03-22T16:31:06;11.50;99.90
3005;DHT22;1512;51.486;6.610;2024-03-22T16:35:15;11.50;1.00
3005;DHT22;1512;51.486;6.610;2024-03-22T16:39:23;11.50;1.00
3005;DHT22;1512;51.486;6.610;2024-03-22T16:43:32;11.40;1.00
3005;DHT22;1512;51.486;6.610;2024-03-22T16:47:41;11.40;1.00
3005;DHT22;1512;51.486;6.610;2024-03-22T16:51:50;11.40;1.00
3005;DHT22;1512;51.486;6.610;2024-03-22T16:55:59;11.40;1.00
3005;DHT22;1512;51.486;6.610;2024-03-22T17:00:08;11.40;1.00
3005;DHT22;1512;51.486;6.610;2024-03-22T17:04:17;11.30;1.00
3005;DHT22;1512;51.486;6.610;2024-03-22T17:08:27;11.30;93.00
3005;DHT22;1512;51.486;6.610;2024-03-22T17:12:36;11.10;1.00
3005;DHT22;1512;51.486;6.610;2024-03-22T17:16:46;10.90;99.90
3005;DHT22;1512;51.486;6.610;2024-03-22T17:20:56;10.60;99.90
3005;DHT22;1512;51.486;6.610;2024-03-22T17:25:05;10.50;1.00
3005;DHT22;1512;51.486;6.610;2024-03-22T17:29:13;10.50;1.00
3005;DHT22;1512;51.486;6.610;2024-03-22T17:33:22;10.50;1.00
3005;DHT22;1512;51.486;6.610;2024-03-22T17:37:31;10.40;1.00
3005;DHT22;1512;51.486;6.610;2024-03-22T17:41:39;10.30;1.00
3005;DHT22;1512;51.486;6.610;2024-03-22T17:45:58;10.20;21.50
3005;DHT22;1512;51.486;6.610;2024-03-22T17:50:07;10.20;99.90
3005;DHT22;1512;51.486;6.610;2024-03-22T17:54:15;10.20;99.90
3005;DHT22;1512;51.486;6.610;2024-03-22T17:58:24;10.20;99.90
3005;DHT22;1512;51.486;6.610;2024-03-22T18:02:33;10.10;99.90
3005;DHT22;1512;51.486;6.610;2024-03-22T18:06:41;10.00;99.90
3005;DHT22;1512;51.486;6.610;2024-03-22T18:10:50;9.90;99.90
3005;DHT22;1512;51.486;6.610;2024-03-22T18:14:58;9.90;90.20
3005;DHT22;1512;51.486;6.610;2024-03-22T18:19:07;9.90;1.00
3005;DHT22;1512;51.486;6.610;2024-03-22T18:23:16;10.00;99.90
3005;DHT22;1512;51.486;6.610;2024-03-22T18:27:25;9.90;99.90
3005;DHT22;1512;51.486;6.610;2024-03-22T18:31:34;10.00;99.90
3005;DHT22;1512;51.486;6.610;2024-03-22T18:35:43;9.90;99.90
3005;DHT22;1512;51.486;6.610;2024-03-22T18:39:52;9.90;77.90
3005;DHT22;1512;51.486;6.610;2024-03-22T18:44:01;9.90;1.00
3005;DHT22;1512;51.486;6.610;2024-03-22T18:48:09;10.00;99.90
3005;DHT22;1512;51.486;6.610;2024-03-22T18:52:18;10.00;1.00
3005;DHT22;1512;51.486;6.610;2024-03-22T18:56:30;10.00;99.90
3005;DHT22;1512;51.486;6.610;2024-03-22T19:00:39;10.00;99.90
3005;DHT22;1512;51.486;6.610;2024-03-22T19:04:48;10.00;99.90
3005;DHT22;1512;51.486;6.610;2024-03-22T19:08:58;10.10;1.00
3005;DHT22;1512;51.486;6.610;2024-03-22T19:13:07;10.10;1.00
3005;DHT22;1512;51.486;6.610;2024-03-22T19:17:16;10.00;99.90
3005;DHT22;1512;51.486;6.610;2024-03-22T19:21:25;10.00;1.00
3005;DHT22;1512;51.486;6.610;2024-03-22T19:25:33;10.00;1.00
3005;DHT22;1512;51.486;6.610;2024-03-22T19:30:01;10.00;1.00
3005;DHT22;1512;51.486;6.610;2024-03-22T19:34:12;9.90;99.90
3005;DHT22;1512;51.486;6.610;2024-03-22T19:38:21;9.90;99.90
3005;DHT22;1512;51.486;6.610;2024-03-22T19:42:29;9.90;1.00
3005;DHT22;1512;51.486;6.610;2024-03-22T19:46:38;9.90;99.90
3005;DHT22;1512;51.486;6.610;2024-03-22T19:50:46;9.80;99.90
3005;DHT22;1512;51.486;6.610;2024-03-22T19:54:55;9.80;1.00
3005;DHT22;1512;51.486;6.610;2024-03-22T19:59:04;9.70;99.90
3005;DHT22;1512;51.486;6.610;2024-03-22T20:03:12;9.80;1.00
3005;DHT22;1512;51.486;6.610;2024-03-22T20:07:21;9.70;1.00
3005;DHT22;1512;51.486;6.610;2024-03-22T20:11:30;9.70;99.90
3005;DHT22;1512;51.486;6.610;2024-03-22T20:15:39;9.70;99.90
3005;DHT22;1512;51.486;6.610;2024-03-22T20:19:48;9.60;99.90
3005;DHT22;1512;51.486;6.610;2024-03-22T20:23:57;9.50;99.90
3005;DHT22;1512;51.486;6.610;2024-03-22T20:28:06;9.40;1.00
3005;DHT22;1512;51.486;6.610;2024-03-22T20:32:15;9.30;1.00
3005;DHT22;1512;51.486;6.610;2024-03-22T20:36:23;9.30;1.00
3005;DHT22;1512;51.486;6.610;2024-03-22T20:40:32;9.30;99.90
